Time;durP1;ratioP1;P1;durP2;ratioP2;P2;SDS_P1;SDS_P2;PMS_P1;PMS_P2;Temp;Humidity;BMP_temperature;BMP_pressure;BME280_temperature;BME280_humidity;BME280_pressure;Samples;Min_cycle;Max_cycle;Signal;HPM_P1;HPM_P2
2022/12/31 00:01:12;;;;;;;2.00;1.20;;;;;;;;;;5010172;28;20432;-43
2022/12/31 00:03:38;;;;;;;1.70;1.60;;;;;;;;;;5009678;28;20411;-44
2022/12/31 00:06:16;;;;;;;1.60;1.50;;;;;;;;;;5011492;28;20950;-44
2022/12/31 00:08:42;;;;;;;2.10;1.47;;;;;;;;;;5004975;28;20461;-44
2022/12/31 00:11:08;;;;;;;1.60;1.50;;;;;;;;;;5009989;28;20420;-43
2022/12/31 00:13:34;;;;;;;1.60;1.33;;;;;;;;;;5011023;28;20407;-43
2022/12/31 00:16:10;;;;;;;2.73;1.60;;;;;;;;;;5008299;28;20962;-43
2022/12/31 00:18:36;;;;;;;1.20;1.10;;;;;;;;;;5010958;28;20471;-43
2022/12/31 00:21:07;;;;;;;1.77;1.40;;;;;;;;;;5008029;28;20451;-43
2022/12/31 00:23:33;;;;;;;2.43;1.30;;;;;;;;;;5007973;28;20422;-43
2022/12/31 00:26:06;;;;;;;1.30;1.20;;;;;;;;;;5011485;28;20483;-44
2022/12/31 00:28:32;;;;;;;1.30;1.20;;;;;;;;;;5011404;28;20455;-44
2022/12/31 00:31:03;;;;;;;2.70;1.30;;;;;;;;;;5007714;28;20416;-44
2022/12/31 00:33:29;;;;;;;4.60;1.47;;;;;;;;;;5011588;28;20503;-43
2022/12/31 00:36:02;;;;;;;1.30;1.20;;;;;;;;;;5004291;28;21028;-44
2022/12/31 00:38:28;;;;;;;1.30;1.20;;;;;;;;;;5011399;28;20437;-43
2022/12/31 00:40:54;;;;;;;1.60;1.20;;;;;;;;;;5008993;28;20480;-43
2022/12/31 00:43:20;;;;;;;1.80;1.70;;;;;;;;;;5010634;28;20411;-43
2022/12/31 00:45:46;;;;;;;1.37;1.27;;;;;;;;;;5010529;28;20412;-44
2022/12/31 00:48:12;;;;;;;1.50;1.40;;;;;;;;;;5004747;28;20517;-43
2022/12/31 00:50:38;;;;;;;1.53;1.43;;;;;;;;;;5010185;28;20432;-43
2022/12/31 00:53:04;;;;;;;1.50;1.40;;;;;;;;;;5010669;28;20413;-44
2022/12/31 00:55:30;;;;;;;1.63;1.53;;;;;;;;;;5010699;28;20491;-44
2022/12/31 00:57:56;;;;;;;1.53;1.43;;;;;;;;;;5007345;28;20446;-44
2022/12/31 01:00:23;;;;;;;1.80;1.70;;;;;;;;;;5011209;28;20427;-44
2022/12/31 01:02:49;;;;;;;1.70;1.60;;;;;;;;;;5009907;28;20417;-43
2022/12/31 01:05:15;;;;;;;1.70;1.60;;;;;;;;;;5005817;28;20439;-43
2022/12/31 01:07:41;;;;;;;1.83;1.73;;;;;;;;;;5011860;28;20431;-43
2022/12/31 01:10:07;;;;;;;1.40;1.30;;;;;;;;;;5015043;28;20462;-44
2022/12/31 01:12:33;;;;;;;1.40;1.30;;;;;;;;;;5011458;28;20415;-45
2022/12/31 01:14:59;;;;;;;1.70;1.60;;;;;;;;;;5014863;28;20465;-43
2022/12/31 01:17:25;;;;;;;1.50;1.40;;;;;;;;;;5008206;28;20430;-43
2022/12/31 01:19:51;;;;;;;5.50;1.40;;;;;;;;;;5014247;28;20745;-43
2022/12/31 01:22:17;;;;;;;1.77;1.67;;;;;;;;;;5014480;28;20491;-43
2022/12/31 01:24:43;;;;;;;1.77;1.50;;;;;;;;;;5013307;28;20407;-44
2022/12/31 01:27:09;;;;;;;1.50;1.40;;;;;;;;;;5014237;28;20472;-43
2022/12/31 01:29:35;;;;;;;1.10;1.10;;;;;;;;;;5009553;28;20471;-43
2022/12/31 01:32:01;;;;;;;1.40;1.30;;;;;;;;;;5014537;28;20926;-43
2022/12/31 01:34:27;;;;;;;1.10;1.00;;;;;;;;;;5014239;28;20415;-43
2022/12/31 01:36:53;;;;;;;1.40;1.30;;;;;;;;;;5014240;28;20429;-44
2022/12/31 01:39:19;;;;;;;1.20;1.10;;;;;;;;;;5012589;28;20417;-44
2022/12/31 01:41:46;;;;;;;1.20;1.10;;;;;;;;;;5013180;28;20496;-43
2022/12/31 01:44:12;;;;;;;4.70;1.30;;;;;;;;;;5014380;28;20515;-43
2022/12/31 01:46:40;;;;;;;1.10;1.10;;;;;;;;;;5007387;28;20526;-44
2022/12/31 01:49:15;;;;;;;1.10;1.00;;;;;;;;;;5014378;28;20471;-43
2022/12/31 01:51:42;;;;;;;0.90;0.90;;;;;;;;;;5014072;28;20789;-43
2022/12/31 01:54:10;;;;;;;1.07;1.07;;;;;;;;;;5011184;28;20450;-43
2022/12/31 01:56:36;;;;;;;1.10;1.00;;;;;;;;;;5012578;28;20730;-43
2022/12/31 01:59:04;;;;;;;1.00;1.00;;;;;;;;;;5014091;28;20434;-44
2022/12/31 02:01:32;;;;;;;4.70;1.30;;;;;;;;;;5013047;28;20411;-44
2022/12/31 02:03:58;;;;;;;2.17;0.90;;;;;;;;;;5006202;28;20421;-44
2022/12/31 02:06:28;;;;;;;2.23;1.20;;;;;;;;;;5011694;28;20975;-45
2022/12/31 02:08:55;;;;;;;3.57;0.93;;;;;;;;;;5008899;28;20460;-44
2022/12/31 02:11:26;;;;;;;1.33;0.70;;;;;;;;;;5009099;28;20421;-44
2022/12/31 02:13:53;;;;;;;1.00;0.90;;;;;;;;;;5013591;28;20403;-44
2022/12/31 02:16:22;;;;;;;1.00;0.90;;;;;;;;;;5008039;28;20414;-44
2022/12/31 02:18:48;;;;;;;0.90;0.90;;;;;;;;;;5013377;28;20525;-44
2022/12/31 02:21:22;;;;;;;1.00;1.00;;;;;;;;;;5012627;28;20495;-43
2022/12/31 02:24:08;;;;;;;0.90;0.90;;;;;;;;;;5013694;28;20943;-44
2022/12/31 02:26:34;;;;;;;1.07;0.90;;;;;;;;;;4970381;28;21145;-43
2022/12/31 02:29:18;;;;;;;1.73;1.20;;;;;;;;;;5013499;28;20468;-44
2022/12/31 02:31:48;;;;;;;0.93;0.93;;;;;;;;;;5005405;28;20475;-43
2022/12/31 02:34:46;;;;;;;0.87;0.87;;;;;;;;;;5012235;28;20411;-44
2022/12/31 02:37:14;;;;;;;0.80;0.80;;;;;;;;;;4979714;28;20524;-43
2022/12/31 02:39:40;;;;;;;0.80;0.80;;;;;;;;;;5008766;28;20473;-44
2022/12/31 02:42:06;;;;;;;0.80;0.80;;;;;;;;;;5013215;28;20453;-43
2022/12/31 02:44:35;;;;;;;0.90;0.80;;;;;;;;;;5005511;28;20429;-43
2022/12/31 02:47:07;;;;;;;0.87;0.80;;;;;;;;;;5012395;28;20426;-43
2022/12/31 02:49:42;;;;;;;0.80;0.80;;;;;;;;;;5009967;28;20465;-44
2022/12/31 02:52:17;;;;;;;0.80;0.70;;;;;;;;;;5013055;28;20461;-43
2022/12/31 02:55:02;;;;;;;1.00;0.80;;;;;;;;;;5013361;28;20848;-44
2022/12/31 02:57:37;;;;;;;0.80;0.73;;;;;;;;;;5009165;28;20507;-44
2022/12/31 03:02:50;;;;;;;1.03;0.93;;;;;;;;;;5012647;28;20462;-44
2022/12/31 03:05:18;;;;;;;0.80;0.80;;;;;;;;;;5010161;28;20444;-44
2022/12/31 03:07:44;;;;;;;0.90;0.90;;;;;;;;;;5012297;28;20474;-43
2022/12/31 03:10:11;;;;;;;0.83;0.80;;;;;;;;;;5006658;28;20475;-44
2022/12/31 03:12:46;;;;;;;0.90;0.80;;;;;;;;;;5012677;28;20422;-43
2022/12/31 03:15:21;;;;;;;0.80;0.80;;;;;;;;;;5011825;28;20413;-44
2022/12/31 03:17:56;;;;;;;1.20;1.10;;;;;;;;;;5009609;28;20524;-43
2022/12/31 03:23:11;;;;;;;1.00;0.97;;;;;;;;;;5005873;28;20448;-43
2022/12/31 03:25:39;;;;;;;1.17;0.80;;;;;;;;;;5012532;28;20940;-44
2022/12/31 03:28:07;;;;;;;0.70;0.70;;;;;;;;;;5012065;28;20862;-44
2022/12/31 03:30:35;;;;;;;1.43;0.80;;;;;;;;;;5011720;28;20893;-45
2022/12/31 03:33:01;;;;;;;1.03;0.93;;;;;;;;;;5012272;28;20417;-45
2022/12/31 03:35:28;;;;;;;2.40;0.90;;;;;;;;;;5012486;28;20417;-44
2022/12/31 03:37:55;;;;;;;1.00;0.90;;;;;;;;;;5002584;28;20443;-44
2022/12/31 03:40:22;;;;;;;2.20;1.00;;;;;;;;;;5008355;28;20784;-44
2022/12/31 03:42:48;;;;;;;1.00;1.00;;;;;;;;;;5012312;28;21026;-44
2022/12/31 03:45:15;;;;;;;1.87;0.83;;;;;;;;;;5012165;28;20889;-44
2022/12/31 03:47:41;;;;;;;1.40;1.30;;;;;;;;;;5011441;28;20442;-44
2022/12/31 03:50:07;;;;;;;1.10;1.10;;;;;;;;;;5012186;28;20469;-44
2022/12/31 03:52:33;;;;;;;2.33;1.00;;;;;;;;;;5012414;28;20512;-44
2022/12/31 03:55:01;;;;;;;0.80;0.80;;;;;;;;;;5012271;28;20484;-44
2022/12/31 03:57:27;;;;;;;1.20;1.10;;;;;;;;;;5011962;28;20935;-44
2022/12/31 03:59:53;;;;;;;1.43;0.90;;;;;;;;;;5012006;28;20445;-44
2022/12/31 04:02:19;;;;;;;3.17;0.90;;;;;;;;;;5003341;28;20548;-45
2022/12/31 04:04:45;;;;;;;1.00;0.93;;;;;;;;;;5012206;28;20420;-44
2022/12/31 04:07:11;;;;;;;1.73;1.00;;;;;;;;;;5011910;28;20438;-44
2022/12/31 04:09:37;;;;;;;3.13;1.10;;;;;;;;;;5011910;28;21071;-44
2022/12/31 04:12:03;;;;;;;1.83;0.90;;;;;;;;;;5008467;28;20773;-43
2022/12/31 04:14:29;;;;;;;3.23;1.00;;;;;;;;;;5008563;28;20887;-44
2022/12/31 04:16:55;;;;;;;1.00;0.90;;;;;;;;;;5011647;28;20424;-44
2022/12/31 04:19:21;;;;;;;1.93;0.80;;;;;;;;;;5012021;28;20823;-43
2022/12/31 04:21:47;;;;;;;0.93;0.93;;;;;;;;;;5000133;28;20418;-43
2022/12/31 04:24:13;;;;;;;0.80;0.80;;;;;;;;;;5006458;28;20842;-45
2022/12/31 04:26:39;;;;;;;0.90;0.77;;;;;;;;;;5004925;28;20428;-44
2022/12/31 04:29:05;;;;;;;1.97;0.90;;;;;;;;;;5011719;28;20454;-44
2022/12/31 04:31:31;;;;;;;0.80;0.80;;;;;;;;;;5009506;28;20634;-44
2022/12/31 04:33:57;;;;;;;1.10;0.80;;;;;;;;;;5011802;28;20399;-44
2022/12/31 04:36:23;;;;;;;1.00;0.80;;;;;;;;;;5011476;28;20545;-43
2022/12/31 04:38:49;;;;;;;0.90;0.80;;;;;;;;;;5006246;28;20439;-44
2022/12/31 04:41:19;;;;;;;2.03;1.10;;;;;;;;;;5012315;28;20427;-44
2022/12/31 04:43:49;;;;;;;4.30;0.90;;;;;;;;;;5015579;28;20424;-44
2022/12/31 04:46:16;;;;;;;0.90;0.90;;;;;;;;;;5015832;28;20549;-44
2022/12/31 04:48:43;;;;;;;0.70;0.70;;;;;;;;;;5009721;28;20465;-44
2022/12/31 04:51:09;;;;;;;0.83;0.73;;;;;;;;;;5006875;28;20834;-44
2022/12/31 04:53:35;;;;;;;1.27;0.80;;;;;;;;;;5005015;28;20489;-43
2022/12/31 04:56:01;;;;;;;1.87;0.80;;;;;;;;;;5008365;28;20406;-43
2022/12/31 04:58:27;;;;;;;1.00;0.90;;;;;;;;;;5015057;28;20445;-43
2022/12/31 05:00:54;;;;;;;1.33;1.00;;;;;;;;;;5013237;28;20437;-43
2022/12/31 05:03:20;;;;;;;1.37;1.00;;;;;;;;;;5015476;28;20938;-43
2022/12/31 05:05:48;;;;;;;5.90;1.17;;;;;;;;;;5009812;28;20418;-44
2022/12/31 05:08:14;;;;;;;0.90;0.80;;;;;;;;;;5010740;28;20923;-43
2022/12/31 05:10:41;;;;;;;0.90;0.70;;;;;;;;;;5012912;28;20417;-43
2022/12/31 05:13:07;;;;;;;1.00;0.90;;;;;;;;;;5015009;28;20403;-43
2022/12/31 05:15:33;;;;;;;1.73;0.70;;;;;;;;;;5014938;28;20418;-43
2022/12/31 05:17:59;;;;;;;0.70;0.70;;;;;;;;;;5011202;28;20430;-44
2022/12/31 05:20:25;;;;;;;0.80;0.80;;;;;;;;;;5015123;28;20411;-44
2022/12/31 05:22:51;;;;;;;1.13;0.90;;;;;;;;;;5008148;28;20415;-43
2022/12/31 05:25:17;;;;;;;8.40;1.00;;;;;;;;;;5014694;28;20415;-44
2022/12/31 05:27:43;;;;;;;1.83;1.00;;;;;;;;;;5014282;28;20449;-43
2022/12/31 05:30:09;;;;;;;1.10;1.00;;;;;;;;;;5013900;28;20454;-43
2022/12/31 05:32:35;;;;;;;1.43;0.90;;;;;;;;;;5012253;28;20403;-43
2022/12/31 05:35:02;;;;;;;1.53;1.00;;;;;;;;;;5014726;28;20389;-44
2022/12/31 05:37:29;;;;;;;1.70;1.07;;;;;;;;;;5014421;28;20526;-43
2022/12/31 05:39:55;;;;;;;2.17;0.80;;;;;;;;;;5006901;28;20422;-44
2022/12/31 05:42:21;;;;;;;1.23;0.90;;;;;;;;;;5012598;28;20412;-43
2022/12/31 05:44:47;;;;;;;1.50;1.00;;;;;;;;;;5014413;28;20902;-44
2022/12/31 05:47:13;;;;;;;1.10;1.00;;;;;;;;;;5011155;28;20443;-44
2022/12/31 05:49:39;;;;;;;1.20;1.00;;;;;;;;;;5012425;28;20490;-44
2022/12/31 05:52:05;;;;;;;1.40;0.90;;;;;;;;;;5014571;28;20941;-43
2022/12/31 05:54:32;;;;;;;1.63;0.90;;;;;;;;;;5013559;28;20407;-43
2022/12/31 05:56:58;;;;;;;1.57;1.00;;;;;;;;;;5013814;28;20410;-43
2022/12/31 05:59:24;;;;;;;1.37;0.90;;;;;;;;;;5010696;28;20397;-44
2022/12/31 06:01:50;;;;;;;1.87;1.00;;;;;;;;;;5017922;28;20786;-43
2022/12/31 06:04:16;;;;;;;2.17;1.03;;;;;;;;;;5013271;28;20390;-44
2022/12/31 06:06:42;;;;;;;1.00;0.80;;;;;;;;;;5013098;28;20808;-44
2022/12/31 06:09:09;;;;;;;1.63;0.90;;;;;;;;;;5014580;28;20793;-43
2022/12/31 06:11:35;;;;;;;1.20;0.90;;;;;;;;;;5006687;28;20416;-44
2022/12/31 06:14:00;;;;;;;2.10;1.10;;;;;;;;;;5013623;28;20929;-43
2022/12/31 06:16:28;;;;;;;1.87;0.93;;;;;;;;;;5013779;28;20419;-43
2022/12/31 06:18:54;;;;;;;1.13;1.03;;;;;;;;;;5005704;28;20515;-44
2022/12/31 06:21:20;;;;;;;1.17;1.10;;;;;;;;;;5014147;28;20911;-43
2022/12/31 06:23:47;;;;;;;2.10;1.10;;;;;;;;;;5008788;28;20394;-43
2022/12/31 06:26:13;;;;;;;2.10;1.67;;;;;;;;;;5007068;28;20510;-43
2022/12/31 06:28:39;;;;;;;1.23;1.13;;;;;;;;;;5013299;28;20455;-44
2022/12/31 06:31:06;;;;;;;1.30;0.90;;;;;;;;;;5013537;28;20415;-43
2022/12/31 06:33:33;;;;;;;2.00;1.10;;;;;;;;;;5010143;28;20490;-44
2022/12/31 06:36:00;;;;;;;1.73;0.90;;;;;;;;;;5013287;28;20378;-43
2022/12/31 06:38:27;;;;;;;2.93;1.10;;;;;;;;;;5013256;28;20427;-44
2022/12/31 06:40:53;;;;;;;1.20;0.90;;;;;;;;;;5006524;28;20420;-44
2022/12/31 06:43:19;;;;;;;4.73;1.50;;;;;;;;;;5013210;28;20448;-43
2022/12/31 06:45:45;;;;;;;6.47;1.40;;;;;;;;;;5013236;28;20379;-44
2022/12/31 06:48:11;;;;;;;2.30;1.23;;;;;;;;;;5009709;28;20451;-43
2022/12/31 06:50:37;;;;;;;1.00;0.90;;;;;;;;;;5013014;28;20431;-43
2022/12/31 06:53:03;;;;;;;3.47;1.10;;;;;;;;;;5009984;28;20444;-44
2022/12/31 06:55:29;;;;;;;1.17;1.07;;;;;;;;;;5009701;28;20497;-44
2022/12/31 06:57:55;;;;;;;1.87;1.20;;;;;;;;;;5012793;28;20431;-44
2022/12/31 07:00:22;;;;;;;1.00;0.90;;;;;;;;;;5011390;28;20419;-43
2022/12/31 07:03:03;;;;;;;1.53;0.90;;;;;;;;;;5012931;28;20415;-43
2022/12/31 07:05:31;;;;;;;3.53;1.10;;;;;;;;;;5007030;28;20411;-44
2022/12/31 07:08:10;;;;;;;5.07;1.30;;;;;;;;;;5012860;28;20490;-43
2022/12/31 07:10:39;;;;;;;1.47;1.00;;;;;;;;;;5004562;28;20574;-43
2022/12/31 07:13:08;;;;;;;3.50;1.63;;;;;;;;;;5012844;28;20413;-45
2022/12/31 07:15:47;;;;;;;3.33;1.20;;;;;;;;;;5009568;28;20901;-44
2022/12/31 07:18:29;;;;;;;4.53;1.67;;;;;;;;;;5012542;28;20446;-43
2022/12/31 07:20:55;;;;;;;1.53;1.40;;;;;;;;;;5004713;28;20458;-43
2022/12/31 07:23:21;;;;;;;1.53;0.93;;;;;;;;;;5012771;28;20409;-44
2022/12/31 07:25:52;;;;;;;1.77;1.00;;;;;;;;;;5004390;28;20427;-44
2022/12/31 07:28:27;;;;;;;2.60;1.07;;;;;;;;;;5010972;28;20806;-44
2022/12/31 07:31:05;;;;;;;1.10;1.00;;;;;;;;;;5012206;28;20424;-43
2022/12/31 07:33:34;;;;;;;6.20;1.33;;;;;;;;;;5007770;28;20485;-43
2022/12/31 07:36:03;;;;;;;1.50;1.40;;;;;;;;;;5012315;28;20804;-43
2022/12/31 07:38:33;;;;;;;1.20;1.10;;;;;;;;;;5004193;28;20438;-43
2022/12/31 07:41:32;;;;;;;7.27;1.00;;;;;;;;;;5010324;28;20415;-44
2022/12/31 07:44:03;;;;;;;3.63;1.20;;;;;;;;;;4968445;28;20438;-43
2022/12/31 07:46:41;;;;;;;3.13;1.20;;;;;;;;;;5007116;28;20447;-43
2022/12/31 07:49:13;;;;;;;3.27;1.27;;;;;;;;;;5011645;28;20553;-43
2022/12/31 07:51:39;;;;;;;2.70;1.40;;;;;;;;;;5010952;28;20444;-43
2022/12/31 07:54:05;;;;;;;2.90;1.10;;;;;;;;;;5005557;28;20406;-44
2022/12/31 07:56:31;;;;;;;2.63;1.10;;;;;;;;;;5004611;28;20387;-44
2022/12/31 07:59:13;;;;;;;1.73;1.00;;;;;;;;;;5014978;28;20459;-43
2022/12/31 08:01:50;;;;;;;2.77;1.20;;;;;;;;;;5011360;28;20421;-43
2022/12/31 08:04:25;;;;;;;1.37;1.27;;;;;;;;;;5008956;28;20496;-44
2022/12/31 08:07:07;;;;;;;1.60;1.00;;;;;;;;;;5011333;28;20761;-44
2022/12/31 08:09:55;;;;;;;2.20;1.00;;;;;;;;;;5010997;28;20456;-43
2022/12/31 08:12:21;;;;;;;1.77;1.23;;;;;;;;;;5008006;28;20452;-43
2022/12/31 08:14:48;;;;;;;3.53;1.13;;;;;;;;;;5011200;28;20444;-43
2022/12/31 08:17:15;;;;;;;2.03;1.30;;;;;;;;;;5006183;28;20439;-43
2022/12/31 08:19:41;;;;;;;3.67;1.33;;;;;;;;;;5009713;28;20415;-43
2022/12/31 08:22:43;;;;;;;1.77;1.10;;;;;;;;;;5011890;28;20412;-43
2022/12/31 08:25:18;;;;;;;1.13;1.03;;;;;;;;;;4931965;29;20426;-43
2022/12/31 08:27:46;;;;;;;1.10;1.00;;;;;;;;;;5000429;28;20481;-43
2022/12/31 08:30:17;;;;;;;2.97;1.03;;;;;;;;;;5006868;28;20524;-43
2022/12/31 08:32:48;;;;;;;3.80;1.30;;;;;;;;;;5011680;28;20419;-44
2022/12/31 08:35:18;;;;;;;1.90;1.13;;;;;;;;;;5008755;28;20435;-44
2022/12/31 08:37:59;;;;;;;2.67;1.27;;;;;;;;;;5009983;28;20867;-43
2022/12/31 08:40:28;;;;;;;2.40;1.20;;;;;;;;;;5008965;28;20429;-43
2022/12/31 08:43:03;;;;;;;1.87;1.20;;;;;;;;;;5010891;28;20416;-43
2022/12/31 08:45:32;;;;;;;2.83;1.00;;;;;;;;;;5010948;28;21009;-43
2022/12/31 08:48:04;;;;;;;1.10;1.00;;;;;;;;;;5010820;28;20550;-43
2022/12/31 08:50:30;;;;;;;2.03;1.20;;;;;;;;;;5006961;28;20467;-43
2022/12/31 08:52:56;;;;;;;1.77;1.10;;;;;;;;;;5004746;28;20418;-43
2022/12/31 08:55:23;;;;;;;2.23;1.30;;;;;;;;;;5011322;28;20430;-44
2022/12/31 08:58:08;;;;;;;6.10;1.20;;;;;;;;;;5010899;28;20419;-44
2022/12/31 09:00:35;;;;;;;1.77;1.00;;;;;;;;;;5007930;28;20419;-44
2022/12/31 09:03:18;;;;;;;2.23;1.17;;;;;;;;;;5011469;28;20464;-43
2022/12/31 09:06:05;;;;;;;1.67;1.30;;;;;;;;;;5010791;28;20404;-44
2022/12/31 09:08:44;;;;;;;2.00;1.10;;;;;;;;;;5007816;28;20406;-44
2022/12/31 09:11:15;;;;;;;7.83;1.40;;;;;;;;;;5011196;28;20387;-43
2022/12/31 09:13:44;;;;;;;2.70;1.13;;;;;;;;;;5011387;28;20407;-44
2022/12/31 09:16:18;;;;;;;1.50;1.13;;;;;;;;;;5007828;28;20426;-43
2022/12/31 09:18:44;;;;;;;1.30;1.10;;;;;;;;;;5011148;28;20782;-44
2022/12/31 09:21:11;;;;;;;3.87;1.30;;;;;;;;;;5010735;28;20388;-43
2022/12/31 09:23:37;;;;;;;4.50;1.17;;;;;;;;;;5011162;28;20957;-43
2022/12/31 09:26:22;;;;;;;1.10;1.00;;;;;;;;;;5010815;28;20908;-43
2022/12/31 09:29:01;;;;;;;3.10;2.13;;;;;;;;;;5009235;28;20440;-43
2022/12/31 09:31:39;;;;;;;1.30;1.20;;;;;;;;;;5014230;28;20926;-43
2022/12/31 09:34:19;;;;;;;2.93;1.40;;;;;;;;;;5008322;28;20412;-44
2022/12/31 09:36:47;;;;;;;4.10;1.10;;;;;;;;;;5012145;28;20529;-44
2022/12/31 09:39:29;;;;;;;1.20;1.10;;;;;;;;;;5009325;28;20371;-44
2022/12/31 09:42:13;;;;;;;1.90;1.10;;;;;;;;;;5014221;28;20378;-43
2022/12/31 09:44:42;;;;;;;3.23;1.23;;;;;;;;;;5012795;28;20800;-43
2022/12/31 09:47:08;;;;;;;2.07;1.97;;;;;;;;;;5009487;28;20480;-43
2022/12/31 09:49:46;;;;;;;2.30;1.37;;;;;;;;;;5014266;28;20555;-44
2022/12/31 09:52:35;;;;;;;5.00;1.50;;;;;;;;;;5005990;28;20395;-44
2022/12/31 09:55:07;;;;;;;2.97;1.60;;;;;;;;;;4969802;28;20417;-44
2022/12/31 09:57:40;;;;;;;2.00;1.30;;;;;;;;;;5013844;28;20459;-44
2022/12/31 10:00:12;;;;;;;2.20;1.40;;;;;;;;;;5009304;28;20401;-45
2022/12/31 10:02:38;;;;;;;3.93;1.57;;;;;;;;;;5013767;28;20500;-43
2022/12/31 10:05:07;;;;;;;1.73;1.37;;;;;;;;;;5010073;28;20505;-43
2022/12/31 10:08:00;;;;;;;1.50;1.40;;;;;;;;;;5012242;28;20437;-44
2022/12/31 10:10:49;;;;;;;1.37;1.00;;;;;;;;;;5013823;28;21015;-43
2022/12/31 10:13:34;;;;;;;1.50;1.00;;;;;;;;;;5008490;28;20471;-44
2022/12/31 10:16:05;;;;;;;1.53;1.27;;;;;;;;;;5006394;28;20412;-44
2022/12/31 10:18:43;;;;;;;1.80;1.30;;;;;;;;;;5013683;28;20399;-44
2022/12/31 10:21:28;;;;;;;2.20;1.60;;;;;;;;;;5008156;28;20403;-44
2022/12/31 10:24:13;;;;;;;4.20;1.10;;;;;;;;;;5013901;28;20414;-43
2022/12/31 10:26:44;;;;;;;5.70;1.53;;;;;;;;;;5011549;28;20473;-43
2022/12/31 10:29:29;;;;;;;1.33;1.20;;;;;;;;;;5009008;28;20442;-44
2022/12/31 10:31:55;;;;;;;3.10;1.30;;;;;;;;;;5011297;28;20468;-43
2022/12/31 10:34:24;;;;;;;6.40;1.73;;;;;;;;;;5005759;28;20421;-44
2022/12/31 10:37:01;;;;;;;2.57;1.30;;;;;;;;;;5011634;28;20413;-43
2022/12/31 10:39:38;;;;;;;1.50;1.40;;;;;;;;;;5013267;28;20410;-43
2022/12/31 10:42:30;;;;;;;3.70;1.30;;;;;;;;;;5003979;28;20389;-44
2022/12/31 10:45:09;;;;;;;1.97;1.27;;;;;;;;;;5005206;28;20505;-43
2022/12/31 10:47:44;;;;;;;1.40;1.17;;;;;;;;;;5004932;28;20490;-43
2022/12/31 10:50:28;;;;;;;2.90;1.43;;;;;;;;;;5011636;28;20438;-44
2022/12/31 10:53:13;;;;;;;3.87;1.30;;;;;;;;;;4999789;28;20414;-43
2022/12/31 10:55:57;;;;;;;2.10;1.23;;;;;;;;;;5012882;28;20403;-43
2022/12/31 10:58:32;;;;;;;3.83;1.40;;;;;;;;;;5007998;28;20908;-43
2022/12/31 11:00:58;;;;;;;2.63;1.37;;;;;;;;;;5005178;28;20388;-43
2022/12/31 11:03:36;;;;;;;4.73;1.30;;;;;;;;;;5012953;28;20484;-44
2022/12/31 11:06:14;;;;;;;3.13;1.33;;;;;;;;;;5005554;28;20404;-43
2022/12/31 11:08:59;;;;;;;1.40;1.30;;;;;;;;;;5010833;28;20470;-43
2022/12/31 11:11:33;;;;;;;3.37;1.97;;;;;;;;;;5008987;28;20775;-43
2022/12/31 11:14:08;;;;;;;2.57;1.80;;;;;;;;;;5010528;28;20425;-43
2022/12/31 11:16:43;;;;;;;2.70;1.50;;;;;;;;;;5004812;28;20412;-45
2022/12/31 11:19:12;;;;;;;4.30;1.40;;;;;;;;;;5011590;28;20482;-44
2022/12/31 11:21:47;;;;;;;2.87;1.20;;;;;;;;;;5012378;28;20452;-43
2022/12/31 11:24:45;;;;;;;3.70;1.20;;;;;;;;;;5008344;28;20766;-44
2022/12/31 11:27:17;;;;;;;7.23;1.90;;;;;;;;;;4961438;28;20486;-44
2022/12/31 11:30:02;;;;;;;2.60;1.40;;;;;;;;;;5011625;28;21077;-43
2022/12/31 11:32:31;;;;;;;2.97;1.37;;;;;;;;;;5010812;28;20415;-44
2022/12/31 11:35:03;;;;;;;5.20;3.10;;;;;;;;;;5001736;28;20414;-43
2022/12/31 11:37:34;;;;;;;4.53;1.50;;;;;;;;;;5011615;28;20444;-44
2022/12/31 11:40:18;;;;;;;2.70;1.47;;;;;;;;;;5009818;28;20409;-44
2022/12/31 11:42:59;;;;;;;3.90;1.13;;;;;;;;;;5010558;28;20457;-43
2022/12/31 11:45:25;;;;;;;3.23;1.23;;;;;;;;;;5011789;28;20417;-43
2022/12/31 11:48:01;;;;;;;2.30;1.20;;;;;;;;;;5011495;28;20519;-43
2022/12/31 11:50:31;;;;;;;6.80;1.70;;;;;;;;;;5008431;28;20523;-43
2022/12/31 11:53:17;;;;;;;2.50;1.37;;;;;;;;;;5009510;28;20414;-43
2022/12/31 11:55:43;;;;;;;3.97;1.53;;;;;;;;;;4988775;28;20399;-43
2022/12/31 11:58:19;;;;;;;4.27;1.40;;;;;;;;;;5004258;28;20495;-43
2022/12/31 12:00:55;;;;;;;3.93;1.50;;;;;;;;;;5010428;28;20424;-43
2022/12/31 12:03:22;;;;;;;4.00;1.20;;;;;;;;;;5004571;28;20396;-43
2022/12/31 12:05:47;;;;;;;5.30;1.70;;;;;;;;;;5011338;28;20486;-44
2022/12/31 12:08:14;;;;;;;1.30;1.20;;;;;;;;;;5007553;28;20511;-44
2022/12/31 12:10:51;;;;;;;2.30;1.50;;;;;;;;;;5010598;28;20455;-44
2022/12/31 12:13:17;;;;;;;1.73;1.20;;;;;;;;;;5007617;28;20816;-46
2022/12/31 12:15:45;;;;;;;2.03;1.70;;;;;;;;;;5012194;28;20512;-44
2022/12/31 12:18:23;;;;;;;3.10;1.43;;;;;;;;;;5008899;28;20514;-44
2022/12/31 12:20:49;;;;;;;3.83;1.43;;;;;;;;;;5012798;28;20421;-46
2022/12/31 12:23:25;;;;;;;3.83;1.43;;;;;;;;;;5006341;28;20412;-45
2022/12/31 12:25:50;;;;;;;1.90;1.60;;;;;;;;;;5012251;28;20511;-45
2022/12/31 12:28:24;;;;;;;4.33;1.97;;;;;;;;;;5011294;28;20523;-44
2022/12/31 12:30:58;;;;;;;2.50;1.20;;;;;;;;;;5007048;28;20480;-44
2022/12/31 12:33:24;;;;;;;5.07;1.50;;;;;;;;;;5009536;28;20382;-44
2022/12/31 12:35:50;;;;;;;1.90;1.53;;;;;;;;;;4993276;28;20400;-46
2022/12/31 12:38:18;;;;;;;5.23;1.80;;;;;;;;;;5012231;28;20815;-44
2022/12/31 12:40:57;;;;;;;5.80;1.50;;;;;;;;;;4995577;28;20451;-44
2022/12/31 12:43:25;;;;;;;3.93;1.60;;;;;;;;;;4996598;28;20418;-44
2022/12/31 12:45:52;;;;;;;3.40;3.10;;;;;;;;;;4992358;28;20446;-44
2022/12/31 12:48:32;;;;;;;5.63;1.87;;;;;;;;;;5000644;28;20739;-45
2022/12/31 12:50:59;;;;;;;5.73;2.10;;;;;;;;;;4993003;28;20446;-45
2022/12/31 12:53:32;;;;;;;2.60;1.80;;;;;;;;;;5004771;28;20455;-44
2022/12/31 12:56:13;;;;;;;2.47;1.80;;;;;;;;;;5005208;28;20421;-44
2022/12/31 12:58:55;;;;;;;5.00;2.77;;;;;;;;;;5012829;28;20439;-44
2022/12/31 13:01:24;;;;;;;2.33;1.93;;;;;;;;;;5012673;28;20986;-45
2022/12/31 13:04:00;;;;;;;6.80;1.97;;;;;;;;;;5014302;28;20466;-44
2022/12/31 13:06:35;;;;;;;6.10;2.00;;;;;;;;;;5016538;28;20445;-43
2022/12/31 13:09:20;;;;;;;4.30;1.70;;;;;;;;;;4997836;28;20451;-45
2022/12/31 13:12:04;;;;;;;1.57;1.40;;;;;;;;;;5016941;28;20446;-44
2022/12/31 13:14:37;;;;;;;2.03;1.83;;;;;;;;;;5016514;28;20421;-46
2022/12/31 13:17:12;;;;;;;2.60;1.67;;;;;;;;;;5015249;28;20433;-44
2022/12/31 13:19:47;;;;;;;3.80;2.90;;;;;;;;;;5014838;28;20410;-45
2022/12/31 13:22:24;;;;;;;6.03;2.13;;;;;;;;;;5014890;28;20477;-44
2022/12/31 13:25:09;;;;;;;6.57;1.90;;;;;;;;;;5011226;28;20410;-45
2022/12/31 13:27:37;;;;;;;2.00;1.40;;;;;;;;;;5014208;28;20441;-46
2022/12/31 13:30:12;;;;;;;2.77;1.43;;;;;;;;;;5011195;28;20568;-45
2022/12/31 13:32:40;;;;;;;4.67;1.60;;;;;;;;;;5010651;28;20927;-43
2022/12/31 13:35:29;;;;;;;3.90;2.10;;;;;;;;;;5015587;28;20411;-46
2022/12/31 13:38:18;;;;;;;2.60;1.90;;;;;;;;;;4999498;28;21016;-45
2022/12/31 13:40:50;;;;;;;3.87;1.47;;;;;;;;;;4990763;28;20836;-44
2022/12/31 13:43:35;;;;;;;4.33;1.63;;;;;;;;;;5012554;28;20415;-46
2022/12/31 13:46:07;;;;;;;4.63;1.73;;;;;;;;;;4997808;28;20828;-43
2022/12/31 13:48:39;;;;;;;8.30;1.87;;;;;;;;;;5013887;28;20840;-45
2022/12/31 13:51:11;;;;;;;4.37;1.50;;;;;;;;;;5012768;28;20419;-44
2022/12/31 13:53:41;;;;;;;3.67;1.73;;;;;;;;;;5016552;28;20418;-44
2022/12/31 13:56:14;;;;;;;4.83;2.00;;;;;;;;;;5012042;28;20415;-45
2022/12/31 13:58:46;;;;;;;3.23;1.60;;;;;;;;;;5010176;28;20442;-44
2022/12/31 14:01:31;;;;;;;2.50;1.50;;;;;;;;;;5014477;28;20407;-44
2022/12/31 14:04:15;;;;;;;2.37;1.40;;;;;;;;;;5014521;28;20418;-44
2022/12/31 14:06:53;;;;;;;7.63;2.60;;;;;;;;;;5014453;28;20417;-45
2022/12/31 14:09:24;;;;;;;3.10;1.50;;;;;;;;;;5014055;28;20516;-44
2022/12/31 14:11:59;;;;;;;3.93;1.80;;;;;;;;;;5014364;28;20423;-46
2022/12/31 14:14:32;;;;;;;4.23;1.43;;;;;;;;;;5014111;28;20956;-46
2022/12/31 14:17:01;;;;;;;8.67;1.60;;;;;;;;;;5013220;28;20524;-45
2022/12/31 14:19:46;;;;;;;4.30;1.60;;;;;;;;;;5014389;28;20389;-45
2022/12/31 14:22:30;;;;;;;2.90;1.80;;;;;;;;;;5013853;28;20451;-44
2022/12/31 14:24:57;;;;;;;1.60;1.20;;;;;;;;;;4994595;28;20426;-45
2022/12/31 14:27:29;;;;;;;3.67;1.83;;;;;;;;;;5013098;28;20799;-45
2022/12/31 14:30:06;;;;;;;4.23;1.80;;;;;;;;;;5013786;28;20481;-44
2022/12/31 14:32:31;;;;;;;5.20;1.70;;;;;;;;;;5013586;28;20465;-45
2022/12/31 14:35:12;;;;;;;1.90;1.57;;;;;;;;;;5012996;28;20451;-44
2022/12/31 14:37:41;;;;;;;6.17;1.77;;;;;;;;;;5010340;28;20457;-45
2022/12/31 14:40:25;;;;;;;3.07;2.07;;;;;;;;;;5012655;28;20991;-42
2022/12/31 14:43:09;;;;;;;7.87;3.70;;;;;;;;;;5011249;28;20485;-42
2022/12/31 14:45:44;;;;;;;4.70;2.53;;;;;;;;;;5011922;28;20548;-42
2022/12/31 14:48:17;;;;;;;3.20;1.73;;;;;;;;;;5011634;28;20433;-43
2022/12/31 14:50:44;;;;;;;2.27;1.33;;;;;;;;;;5008780;28;20462;-43
2022/12/31 14:53:18;;;;;;;2.70;1.70;;;;;;;;;;5009379;28;20438;-43
2022/12/31 14:55:44;;;;;;;1.90;1.70;;;;;;;;;;5002125;28;20403;-43
2022/12/31 14:58:23;;;;;;;3.03;1.40;;;;;;;;;;5011591;28;20436;-42
2022/12/31 15:00:57;;;;;;;4.70;1.70;;;;;;;;;;4993747;28;21272;-44
2022/12/31 15:03:26;;;;;;;4.00;1.80;;;;;;;;;;5003923;28;20427;-42
2022/12/31 15:05:54;;;;;;;7.23;2.40;;;;;;;;;;4999428;28;20935;-42
2022/12/31 15:08:23;;;;;;;4.10;1.80;;;;;;;;;;5003996;28;20439;-42
2022/12/31 15:11:07;;;;;;;3.83;1.80;;;;;;;;;;5004772;28;20477;-42
2022/12/31 15:13:33;;;;;;;5.80;2.40;;;;;;;;;;4997973;28;20411;-41